Time;durP1;ratioP1;P1;durP2;ratioP2;P2;SDS_P1;SDS_P2;PMS_P1;PMS_P2;Temp;Humidity;BMP_temperature;BMP_pressure;BME280_temperature;BME280_humidity;BME280_pressure;Samples;Min_cycle;Max_cycle;Signal;HPM_P1;HPM_P2
2023/07/28 00:00:58;;;;;;;15.18;10.20;;;;;;;;;;4935153;29;20087;-74
2023/07/28 00:03:24;;;;;;;11.07;10.05;;;;;;;;;;4935558;29;20040;-73
2023/07/28 00:05:51;;;;;;;13.65;10.27;;;;;;;;;;4935265;29;20495;-73
2023/07/28 00:08:17;;;;;;;14.05;10.63;;;;;;;;;;4934951;29;20052;-74
2023/07/28 00:10:43;;;;;;;11.45;10.50;;;;;;;;;;4935214;29;20044;-73
2023/07/28 00:13:09;;;;;;;11.32;10.23;;;;;;;;;;4934852;29;20055;-72
2023/07/28 00:15:35;;;;;;;12.13;10.07;;;;;;;;;;4934987;29;20035;-73
2023/07/28 00:18:03;;;;;;;15.95;10.90;;;;;;;;;;4934773;29;20078;-72
2023/07/28 00:20:29;;;;;;;12.20;10.52;;;;;;;;;;4934932;29;20049;-74
2023/07/28 00:22:55;;;;;;;13.52;10.90;;;;;;;;;;4934942;29;20495;-73
2023/07/28 00:25:22;;;;;;;17.75;11.35;;;;;;;;;;4934541;29;20040;-74
2023/07/28 00:27:48;;;;;;;12.18;11.18;;;;;;;;;;4933628;29;20684;-73
2023/07/28 00:30:14;;;;;;;13.32;11.98;;;;;;;;;;4933373;29;20490;-73
2023/07/28 00:32:40;;;;;;;12.15;10.88;;;;;;;;;;4934811;29;20403;-74
2023/07/28 00:35:09;;;;;;;15.00;11.35;;;;;;;;;;4933332;29;20502;-73
2023/07/28 00:37:35;;;;;;;12.07;10.90;;;;;;;;;;4933562;29;20063;-73
2023/07/28 00:40:01;;;;;;;12.55;11.35;;;;;;;;;;4934542;29;20499;-74
2023/07/28 00:42:30;;;;;;;12.55;11.30;;;;;;;;;;4934628;29;20047;-73
2023/07/28 00:44:56;;;;;;;12.75;11.63;;;;;;;;;;4934685;29;20047;-72
2023/07/28 00:47:22;;;;;;;12.50;11.30;;;;;;;;;;4934289;29;20036;-72
2023/07/28 00:49:49;;;;;;;12.68;11.18;;;;;;;;;;4949144;29;20032;-72
2023/07/28 00:52:15;;;;;;;11.93;10.77;;;;;;;;;;4948981;29;20061;-72
2023/07/28 00:54:41;;;;;;;11.80;10.82;;;;;;;;;;4934367;29;20042;-74
2023/07/28 00:57:07;;;;;;;13.40;11.55;;;;;;;;;;4932638;29;20064;-73
2023/07/28 00:59:34;;;;;;;16.42;12.48;;;;;;;;;;4934238;29;20042;-73
2023/07/28 01:02:00;;;;;;;17.35;12.57;;;;;;;;;;4949012;29;20044;-73
2023/07/28 01:04:27;;;;;;;15.93;12.18;;;;;;;;;;4934296;29;20062;-73
2023/07/28 01:06:53;;;;;;;12.82;11.57;;;;;;;;;;4934287;29;20099;-72
2023/07/28 01:09:21;;;;;;;12.98;11.95;;;;;;;;;;4934146;29;20090;-72
2023/07/28 01:11:56;;;;;;;12.88;11.80;;;;;;;;;;4949031;29;20040;-72
2023/07/28 01:14:23;;;;;;;13.10;11.90;;;;;;;;;;4933856;29;20031;-73
2023/07/28 01:16:49;;;;;;;13.52;12.23;;;;;;;;;;4933015;29;20070;-73
2023/07/28 01:19:19;;;;;;;13.30;11.85;;;;;;;;;;4935630;29;20463;-73
2023/07/28 01:21:46;;;;;;;12.77;11.55;;;;;;;;;;4950152;29;20048;-73
2023/07/28 01:24:20;;;;;;;13.85;12.10;;;;;;;;;;4933608;29;20047;-74
2023/07/28 01:26:46;;;;;;;15.55;12.93;;;;;;;;;;4933905;29;20036;-71
2023/07/28 01:29:13;;;;;;;12.90;11.50;;;;;;;;;;4933357;29;20574;-72
2023/07/28 01:31:39;;;;;;;14.02;11.82;;;;;;;;;;4948554;29;20031;-72
2023/07/28 01:34:05;;;;;;;15.30;12.15;;;;;;;;;;4932526;29;20118;-72
2023/07/28 01:36:31;;;;;;;14.57;12.30;;;;;;;;;;4948243;29;20472;-73
2023/07/28 01:38:57;;;;;;;13.50;12.10;;;;;;;;;;4932449;29;20123;-73
2023/07/28 01:41:23;;;;;;;14.10;12.45;;;;;;;;;;4931974;29;20086;-73
2023/07/28 01:43:49;;;;;;;14.20;11.98;;;;;;;;;;4932517;29;20119;-72
2023/07/28 01:46:15;;;;;;;16.25;12.52;;;;;;;;;;4933229;29;20489;-72
2023/07/28 01:48:41;;;;;;;14.13;12.38;;;;;;;;;;4933456;29;20044;-72
2023/07/28 01:51:07;;;;;;;12.88;11.82;;;;;;;;;;4933388;29;20040;-74
2023/07/28 01:53:33;;;;;;;15.63;11.50;;;;;;;;;;4932437;29;20063;-74
2023/07/28 01:56:00;;;;;;;15.82;12.05;;;;;;;;;;4948835;28;20071;-73
2023/07/28 01:58:27;;;;;;;12.90;11.52;;;;;;;;;;4938145;29;20103;-73
2023/07/28 02:00:53;;;;;;;13.65;11.52;;;;;;;;;;4943090;29;20046;-73
2023/07/28 02:03:18;;;;;;;12.65;11.50;;;;;;;;;;4935447;29;20035;-72
2023/07/28 02:05:44;;;;;;;12.65;11.27;;;;;;;;;;4933158;29;20039;-74
2023/07/28 02:08:11;;;;;;;12.15;11.15;;;;;;;;;;4932660;29;20048;-73
2023/07/28 02:10:36;;;;;;;12.55;11.35;;;;;;;;;;4932423;29;20531;-73
2023/07/28 02:13:02;;;;;;;16.60;12.25;;;;;;;;;;4931909;29;20039;-75
2023/07/28 02:15:29;;;;;;;13.30;12.18;;;;;;;;;;4931505;29;20035;-73
2023/07/28 02:17:55;;;;;;;14.02;12.80;;;;;;;;;;4931789;29;20040;-73
2023/07/28 02:20:28;;;;;;;14.77;13.23;;;;;;;;;;4931537;29;20042;-73
2023/07/28 02:22:54;;;;;;;14.23;12.90;;;;;;;;;;4933459;29;20090;-72
2023/07/28 02:25:20;;;;;;;14.52;12.52;;;;;;;;;;4932755;29;20042;-73
2023/07/28 02:27:46;;;;;;;13.68;12.18;;;;;;;;;;4932950;29;20091;-72
2023/07/28 02:30:13;;;;;;;13.85;11.93;;;;;;;;;;4947177;29;20105;-73
2023/07/28 02:32:40;;;;;;;12.13;11.02;;;;;;;;;;4932878;29;20036;-73
2023/07/28 02:35:07;;;;;;;12.38;11.13;;;;;;;;;;4931218;29;20038;-73
2023/07/28 02:37:33;;;;;;;15.10;11.85;;;;;;;;;;4932809;29;20036;-74
2023/07/28 02:39:59;;;;;;;14.07;12.27;;;;;;;;;;4932717;29;20114;-74
2023/07/28 02:42:26;;;;;;;17.77;11.95;;;;;;;;;;4931327;29;20067;-73
2023/07/28 02:44:52;;;;;;;12.70;11.45;;;;;;;;;;4932756;29;20430;-73
2023/07/28 02:47:18;;;;;;;14.27;12.75;;;;;;;;;;4932241;29;20040;-73
2023/07/28 02:49:45;;;;;;;17.58;11.82;;;;;;;;;;4932509;29;20054;-72
2023/07/28 02:52:11;;;;;;;12.90;11.75;;;;;;;;;;4932386;29;20522;-73
2023/07/28 02:54:37;;;;;;;14.35;12.52;;;;;;;;;;4931298;29;20047;-72
2023/07/28 02:57:04;;;;;;;12.85;11.40;;;;;;;;;;4931518;29;20056;-72
2023/07/28 02:59:29;;;;;;;13.25;12.00;;;;;;;;;;4932307;29;20499;-73
2023/07/28 03:01:57;;;;;;;12.60;11.27;;;;;;;;;;4931315;29;20051;-72
2023/07/28 03:04:24;;;;;;;12.27;11.18;;;;;;;;;;4932202;29;20079;-74
2023/07/28 03:07:21;;;;;;;14.32;11.32;;;;;;;;;;4931995;29;20035;-72
2023/07/28 03:09:54;;;;;;;11.73;10.57;;;;;;;;;;4948147;29;20043;-72
2023/07/28 03:12:20;;;;;;;13.70;12.20;;;;;;;;;;4931623;29;20038;-73
2023/07/28 03:14:46;;;;;;;13.90;12.50;;;;;;;;;;4947145;29;20040;-72
2023/07/28 03:17:12;;;;;;;14.98;13.38;;;;;;;;;;4930667;29;20044;-73
2023/07/28 03:19:38;;;;;;;15.00;12.80;;;;;;;;;;4930948;29;20036;-73
2023/07/28 03:22:04;;;;;;;13.70;12.23;;;;;;;;;;4918788;29;20028;-74
2023/07/28 03:24:31;;;;;;;13.70;12.27;;;;;;;;;;4935579;29;20399;-72
2023/07/28 03:26:56;;;;;;;12.77;11.57;;;;;;;;;;4934753;29;20503;-72
2023/07/28 03:29:23;;;;;;;13.25;11.90;;;;;;;;;;4935640;29;20055;-72
2023/07/28 03:31:49;;;;;;;21.88;12.27;;;;;;;;;;4934449;29;20038;-73
2023/07/28 03:34:16;;;;;;;11.98;11.02;;;;;;;;;;4934486;29;20414;-73
2023/07/28 03:36:42;;;;;;;12.85;11.05;;;;;;;;;;4934487;29;20062;-75
2023/07/28 03:39:09;;;;;;;13.60;12.07;;;;;;;;;;4934538;29;20044;-72
2023/07/28 03:41:35;;;;;;;14.60;13.25;;;;;;;;;;4934203;29;20134;-73
2023/07/28 03:44:01;;;;;;;14.13;12.82;;;;;;;;;;4934430;29;20119;-72
2023/07/28 03:46:27;;;;;;;13.27;12.05;;;;;;;;;;4933978;29;20114;-74
2023/07/28 03:48:53;;;;;;;13.77;12.50;;;;;;;;;;4934306;29;20051;-73
2023/07/28 03:51:19;;;;;;;17.13;12.30;;;;;;;;;;4935230;29;20047;-72
2023/07/28 03:53:45;;;;;;;19.83;15.75;;;;;;;;;;4935451;29;20051;-71
2023/07/28 03:56:11;;;;;;;18.17;14.75;;;;;;;;;;4934632;29;20073;-72
2023/07/28 03:58:37;;;;;;;19.45;15.05;;;;;;;;;;4935309;29;20069;-70
2023/07/28 04:01:03;;;;;;;15.73;14.20;;;;;;;;;;4935311;29;20032;-72
2023/07/28 04:03:29;;;;;;;12.07;10.88;;;;;;;;;;4935053;29;20035;-71
2023/07/28 04:05:55;;;;;;;13.50;12.10;;;;;;;;;;4935174;29;20063;-72
2023/07/28 04:08:21;;;;;;;10.40;8.38;;;;;;;;;;4934909;29;20047;-72
2023/07/28 04:10:48;;;;;;;13.23;11.73;;;;;;;;;;4935728;29;20087;-72
2023/07/28 04:13:14;;;;;;;13.55;12.13;;;;;;;;;;4935202;29;20132;-73
2023/07/28 04:15:40;;;;;;;12.00;11.05;;;;;;;;;;4935053;29;20177;-74
2023/07/28 04:18:06;;;;;;;11.75;10.68;;;;;;;;;;4935122;29;20484;-72
2023/07/28 04:20:33;;;;;;;9.93;7.82;;;;;;;;;;4934699;29;20091;-73
2023/07/28 04:22:59;;;;;;;8.05;7.38;;;;;;;;;;4935052;29;20043;-72
2023/07/28 04:25:25;;;;;;;10.88;9.98;;;;;;;;;;4933422;29;20047;-72
2023/07/28 04:27:51;;;;;;;9.73;8.82;;;;;;;;;;4933676;29;20083;-72
2023/07/28 04:30:19;;;;;;;12.07;8.85;;;;;;;;;;4934412;29;20574;-73
2023/07/28 04:32:45;;;;;;;10.95;9.85;;;;;;;;;;4948928;28;20096;-72
2023/07/28 04:35:15;;;;;;;;;;;;;;;;;;4933764;29;20040;-71
2023/07/28 04:38:01;;;;;;;10.32;9.27;;;;;;;;;;4934669;29;19922;-72
2023/07/28 04:40:53;;;;;;;10.90;10.10;;;;;;;;;;4932656;29;20138;-71
2023/07/28 04:43:24;;;;;;;13.68;9.60;;;;;;;;;;4949255;29;20103;-71
2023/07/28 04:45:54;;;;;;;9.43;8.83;;;;;;;;;;4933351;29;20036;-72
2023/07/28 04:48:22;;;;;;;9.70;7.47;;;;;;;;;;4948982;29;20050;-72
2023/07/28 04:50:48;;;;;;;7.68;7.07;;;;;;;;;;4933170;29;20058;-72
2023/07/28 04:53:33;;;;;;;8.98;8.05;;;;;;;;;;4934222;29;20050;-72
2023/07/28 04:56:11;;;;;;;8.88;8.20;;;;;;;;;;4933135;29;20099;-73
2023/07/28 04:58:37;;;;;;;6.70;6.20;;;;;;;;;;4949661;29;20039;-72
2023/07/28 05:01:03;;;;;;;7.38;6.65;;;;;;;;;;4935063;29;20046;-73
2023/07/28 05:03:30;;;;;;;7.00;6.30;;;;;;;;;;4953168;29;20400;-71
2023/07/28 05:06:03;;;;;;;4.40;4.10;;;;;;;;;;4937514;29;20545;-74
2023/07/28 05:08:29;;;;;;;5.20;4.70;;;;;;;;;;4950045;29;20078;-73
2023/07/28 05:10:56;;;;;;;6.78;4.70;;;;;;;;;;4934198;29;20142;-74
2023/07/28 05:13:22;;;;;;;5.88;4.03;;;;;;;;;;4932647;29;20039;-74
2023/07/28 05:15:55;;;;;;;6.95;4.78;;;;;;;;;;4933906;29;20111;-73
2023/07/28 05:18:47;;;;;;;4.70;4.30;;;;;;;;;;4934012;29;20038;-71
2023/07/28 05:21:42;;;;;;;4.60;4.20;;;;;;;;;;4898292;29;20056;-72
2023/07/28 05:24:12;;;;;;;9.00;4.82;;;;;;;;;;4932734;29;20040;-74
2023/07/28 05:26:38;;;;;;;5.68;4.93;;;;;;;;;;4932416;29;20135;-73
2023/07/28 05:29:04;;;;;;;6.28;5.20;;;;;;;;;;4933739;29;20051;-72
2023/07/28 05:31:30;;;;;;;5.35;4.85;;;;;;;;;;4933374;29;20573;-73
2023/07/28 05:33:57;;;;;;;6.70;5.00;;;;;;;;;;4948375;29;20123;-73
2023/07/28 05:36:24;;;;;;;5.57;4.85;;;;;;;;;;4947866;29;20491;-73
2023/07/28 05:38:53;;;;;;;7.20;4.97;;;;;;;;;;4932215;29;20031;-74
2023/07/28 05:41:19;;;;;;;6.20;4.97;;;;;;;;;;4932070;29;20054;-74
2023/07/28 05:43:45;;;;;;;6.55;5.13;;;;;;;;;;4931255;29;20042;-72
2023/07/28 05:46:12;;;;;;;7.00;5.88;;;;;;;;;;4948204;29;20043;-72
2023/07/28 05:48:39;;;;;;;8.18;4.70;;;;;;;;;;4947843;29;20047;-72
2023/07/28 05:51:05;;;;;;;5.32;4.82;;;;;;;;;;4933552;29;20118;-73
2023/07/28 05:53:32;;;;;;;5.65;3.80;;;;;;;;;;4916012;29;20047;-73
2023/07/28 05:56:03;;;;;;;3.35;3.13;;;;;;;;;;4933114;29;20040;-72
2023/07/28 05:58:31;;;;;;;4.45;3.90;;;;;;;;;;4931767;29;20055;-74
2023/07/28 06:00:57;;;;;;;4.35;3.58;;;;;;;;;;4932125;29;20419;-73
2023/07/28 06:03:44;;;;;;;4.00;3.65;;;;;;;;;;4933000;29;20414;-75
2023/07/28 06:06:18;;;;;;;4.65;4.03;;;;;;;;;;4931850;29;20035;-73
2023/07/28 06:08:45;;;;;;;4.70;4.22;;;;;;;;;;4947598;29;20535;-73
2023/07/28 06:11:11;;;;;;;5.15;4.65;;;;;;;;;;4933062;29;20036;-75
2023/07/28 06:13:37;;;;;;;10.40;8.40;;;;;;;;;;4932877;29;20049;-74
2023/07/28 06:16:03;;;;;;;11.45;8.45;;;;;;;;;;4931814;29;20035;-73
2023/07/28 06:18:29;;;;;;;15.80;12.13;;;;;;;;;;4931440;29;20047;-74
2023/07/28 06:21:09;;;;;;;16.08;12.77;;;;;;;;;;4931687;29;20127;-74
2023/07/28 06:23:35;;;;;;;14.15;8.40;;;;;;;;;;4931235;29;20043;-74
2023/07/28 06:26:01;;;;;;;5.65;5.03;;;;;;;;;;4931622;29;20042;-74
2023/07/28 06:28:52;;;;;;;4.50;3.58;;;;;;;;;;4947319;29;20188;-74
2023/07/28 06:31:18;;;;;;;6.28;4.32;;;;;;;;;;4932819;29;20534;-76
2023/07/28 06:33:44;;;;;;;9.95;4.68;;;;;;;;;;4931416;29;20043;-75
2023/07/28 06:36:11;;;;;;;4.20;3.88;;;;;;;;;;4932745;29;20032;-74
2023/07/28 06:38:38;;;;;;;3.97;3.50;;;;;;;;;;4931248;29;20139;-74
2023/07/28 06:41:04;;;;;;;4.38;3.78;;;;;;;;;;4931322;29;20038;-74
2023/07/28 06:43:30;;;;;;;3.65;3.33;;;;;;;;;;4947210;29;20039;-75
2023/07/28 06:46:00;;;;;;;4.45;3.10;;;;;;;;;;4931659;29;20047;-74
2023/07/28 06:48:26;;;;;;;6.15;3.60;;;;;;;;;;4947190;29;20048;-74
2023/07/28 06:50:53;;;;;;;4.03;3.72;;;;;;;;;;4931796;29;20530;-73
2023/07/28 06:53:21;;;;;;;5.43;3.08;;;;;;;;;;4947700;29;20122;-74
2023/07/28 06:55:47;;;;;;;3.33;3.13;;;;;;;;;;4934533;29;20035;-73
2023/07/28 06:58:13;;;;;;;5.55;3.45;;;;;;;;;;4937714;29;20059;-74
2023/07/28 07:00:40;;;;;;;7.07;3.35;;;;;;;;;;4939493;29;20127;-74
2023/07/28 07:03:06;;;;;;;3.58;3.28;;;;;;;;;;4940059;29;20514;-75
2023/07/28 07:05:32;;;;;;;6.28;3.05;;;;;;;;;;4936256;29;20063;-74
2023/07/28 07:07:58;;;;;;;7.28;3.22;;;;;;;;;;4936445;29;20082;-74
2023/07/28 07:10:25;;;;;;;4.03;3.40;;;;;;;;;;4936194;29;20040;-75
2023/07/28 07:12:51;;;;;;;4.90;3.30;;;;;;;;;;4936311;29;20047;-74
2023/07/28 07:15:17;;;;;;;7.03;3.78;;;;;;;;;;4950939;29;20054;-76
2023/07/28 07:17:43;;;;;;;6.70;3.90;;;;;;;;;;4935827;29;20047;-74
2023/07/28 07:20:10;;;;;;;4.07;3.10;;;;;;;;;;4936318;29;20047;-74
2023/07/28 07:22:36;;;;;;;4.60;3.13;;;;;;;;;;4935819;29;20434;-74
2023/07/28 07:25:03;;;;;;;3.50;3.20;;;;;;;;;;4936167;29;20100;-74
2023/07/28 07:27:32;;;;;;;5.95;3.90;;;;;;;;;;4935841;29;20032;-74
2023/07/28 07:29:57;;;;;;;4.18;3.80;;;;;;;;;;4936236;29;20039;-73
2023/07/28 07:32:23;;;;;;;4.15;3.35;;;;;;;;;;4935971;29;20414;-75
2023/07/28 07:34:49;;;;;;;9.25;3.53;;;;;;;;;;4918961;29;20040;-74
2023/07/28 07:37:15;;;;;;;4.15;3.65;;;;;;;;;;4935908;29;20039;-75
2023/07/28 07:39:43;;;;;;;3.92;3.53;;;;;;;;;;4950284;29;20039;-75
2023/07/28 07:42:09;;;;;;;4.22;3.78;;;;;;;;;;4935903;29;20046;-75
2023/07/28 07:44:36;;;;;;;4.03;3.63;;;;;;;;;;4935521;29;20039;-74
2023/07/28 07:47:03;;;;;;;8.63;3.65;;;;;;;;;;4935812;29;20067;-73
2023/07/28 07:49:29;;;;;;;5.68;3.95;;;;;;;;;;4949784;29;20523;-74
2023/07/28 07:51:55;;;;;;;5.20;3.33;;;;;;;;;;4935690;29;20054;-75
2023/07/28 07:54:21;;;;;;;3.90;3.42;;;;;;;;;;4935684;29;20043;-72
2023/07/28 07:56:47;;;;;;;5.43;3.40;;;;;;;;;;4918034;29;20044;-75
2023/07/28 07:59:13;;;;;;;5.70;3.22;;;;;;;;;;4950506;29;20494;-74
2023/07/28 08:01:39;;;;;;;5.32;3.60;;;;;;;;;;4935634;29;20068;-75
2023/07/28 08:04:06;;;;;;;3.90;3.60;;;;;;;;;;4936495;29;20055;-75
2023/07/28 08:06:32;;;;;;;5.82;3.50;;;;;;;;;;4941000;29;20039;-74
2023/07/28 08:08:59;;;;;;;4.30;3.47;;;;;;;;;;4937181;29;20101;-75
2023/07/28 08:11:25;;;;;;;5.20;3.70;;;;;;;;;;4935568;29;20059;-75
2023/07/28 08:13:51;;;;;;;3.90;3.60;;;;;;;;;;4935136;29;20039;-74
2023/07/28 08:16:17;;;;;;;7.82;3.92;;;;;;;;;;4935288;29;20032;-74
2023/07/28 08:18:43;;;;;;;6.20;3.47;;;;;;;;;;4934862;29;20063;-75
2023/07/28 08:21:09;;;;;;;7.20;3.97;;;;;;;;;;4934140;29;20031;-76
2023/07/28 08:23:36;;;;;;;4.38;3.97;;;;;;;;;;4934984;29;20414;-75
2023/07/28 08:26:03;;;;;;;8.48;3.17;;;;;;;;;;4935061;29;20032;-75
2023/07/28 08:28:29;;;;;;;4.85;3.72;;;;;;;;;;4934705;29;20050;-74
2023/07/28 08:30:59;;;;;;;3.97;3.67;;;;;;;;;;4949389;29;20036;-74
2023/07/28 08:33:25;;;;;;;3.55;3.20;;;;;;;;;;4934899;29;20040;-76
2023/07/28 08:35:51;;;;;;;6.60;3.58;;;;;;;;;;4933231;29;20086;-75
2023/07/28 08:38:17;;;;;;;3.42;3.22;;;;;;;;;;4933647;29;20455;-73
2023/07/28 08:40:44;;;;;;;4.00;3.60;;;;;;;;;;4949158;29;20691;-75
2023/07/28 08:43:10;;;;;;;3.38;3.08;;;;;;;;;;4933627;29;20090;-75
2023/07/28 08:45:36;;;;;;;4.30;3.28;;;;;;;;;;4934359;29;20115;-75
2023/07/28 08:48:02;;;;;;;4.50;3.38;;;;;;;;;;4934616;29;20043;-75
2023/07/28 08:50:29;;;;;;;7.03;3.30;;;;;;;;;;4934648;29;20035;-76
2023/07/28 08:52:56;;;;;;;4.00;3.55;;;;;;;;;;4916495;29;20039;-75
2023/07/28 08:55:22;;;;;;;4.93;3.67;;;;;;;;;;4933173;29;20526;-77
2023/07/28 08:57:48;;;;;;;6.43;3.50;;;;;;;;;;4933902;29;20052;-74
2023/07/28 09:00:15;;;;;;;8.65;3.83;;;;;;;;;;4934083;29;20454;-74
2023/07/28 09:02:41;;;;;;;7.93;3.70;;;;;;;;;;4932932;29;20039;-73
2023/07/28 09:05:07;;;;;;;6.53;3.72;;;;;;;;;;4933882;29;20049;-74
2023/07/28 09:07:34;;;;;;;5.10;3.97;;;;;;;;;;4932096;29;20050;-75
2023/07/28 09:10:01;;;;;;;9.88;4.22;;;;;;;;;;4933639;29;20284;-73
2023/07/28 09:12:33;;;;;;;7.30;3.72;;;;;;;;;;4917198;29;20036;-73
2023/07/28 09:15:00;;;;;;;6.38;4.10;;;;;;;;;;4932704;29;20050;-74
2023/07/28 09:17:26;;;;;;;4.25;3.85;;;;;;;;;;4934099;29;20043;-74
2023/07/28 09:19:52;;;;;;;6.38;4.38;;;;;;;;;;4933625;29;20047;-73
2023/07/28 09:22:20;;;;;;;5.80;4.30;;;;;;;;;;4934014;29;20514;-74
2023/07/28 09:24:46;;;;;;;6.97;4.60;;;;;;;;;;4933714;29;20043;-74
2023/07/28 09:27:20;;;;;;;8.63;4.13;;;;;;;;;;4933915;29;20035;-74
2023/07/28 09:29:54;;;;;;;6.40;4.50;;;;;;;;;;4916767;29;20079;-74
2023/07/28 09:32:32;;;;;;;6.47;4.60;;;;;;;;;;4932757;29;20059;-74
2023/07/28 09:35:09;;;;;;;12.15;5.05;;;;;;;;;;4932585;29;20066;-72
2023/07/28 09:37:39;;;;;;;7.53;4.90;;;;;;;;;;4932196;29;20031;-74
2023/07/28 09:40:16;;;;;;;5.32;4.80;;;;;;;;;;4933840;29;20035;-74
2023/07/28 09:42:42;;;;;;;12.35;5.10;;;;;;;;;;4933514;29;20106;-74
2023/07/28 09:45:09;;;;;;;11.68;5.70;;;;;;;;;;4933735;29;20055;-74
2023/07/28 09:47:35;;;;;;;9.73;5.35;;;;;;;;;;4933212;29;20043;-74
2023/07/28 09:50:05;;;;;;;10.55;5.60;;;;;;;;;;4933575;29;20047;-74
2023/07/28 09:52:40;;;;;;;5.80;5.28;;;;;;;;;;4934734;29;20046;-73
2023/07/28 09:55:11;;;;;;;7.15;5.20;;;;;;;;;;4934618;29;20048;-74
2023/07/28 09:57:51;;;;;;;8.07;5.72;;;;;;;;;;4947650;29;20063;-72
2023/07/28 10:00:18;;;;;;;6.57;5.22;;;;;;;;;;4933473;29;20040;-73
2023/07/28 10:02:44;;;;;;;9.65;6.50;;;;;;;;;;4933345;29;20534;-73
2023/07/28 10:05:10;;;;;;;7.72;5.65;;;;;;;;;;4948310;29;20112;-73
2023/07/28 10:07:38;;;;;;;10.48;5.78;;;;;;;;;;4932949;29;20503;-73
2023/07/28 10:10:09;;;;;;;7.57;5.80;;;;;;;;;;4933342;29;20495;-73
2023/07/28 10:12:42;;;;;;;6.95;5.32;;;;;;;;;;4931721;29;20027;-74
2023/07/28 10:15:11;;;;;;;8.48;6.20;;;;;;;;;;4933328;29;20035;-73
2023/07/28 10:17:37;;;;;;;9.07;5.60;;;;;;;;;;4933030;29;20036;-73
2023/07/28 10:20:08;;;;;;;7.82;5.80;;;;;;;;;;4933139;29;20043;-74
2023/07/28 10:22:47;;;;;;;7.40;6.40;;;;;;;;;;4932944;29;20506;-73
2023/07/28 10:25:13;;;;;;;10.85;6.57;;;;;;;;;;4933151;29;20510;-71
2023/07/28 10:27:39;;;;;;;7.75;5.63;;;;;;;;;;4931270;29;20035;-73
2023/07/28 10:30:09;;;;;;;7.55;6.70;;;;;;;;;;4931085;29;20046;-73
2023/07/28 10:32:39;;;;;;;6.43;5.78;;;;;;;;;;4932810;29;20066;-72
2023/07/28 10:35:25;;;;;;;7.45;5.93;;;;;;;;;;4933143;29;20047;-71
2023/07/28 10:37:51;;;;;;;7.35;6.30;;;;;;;;;;4931545;29;20123;-73
2023/07/28 10:40:24;;;;;;;10.27;7.50;;;;;;;;;;4933371;29;20562;-73
2023/07/28 10:42:51;;;;;;;8.45;7.60;;;;;;;;;;4932559;29;20070;-73
2023/07/28 10:45:17;;;;;;;13.45;7.47;;;;;;;;;;4932893;29;20047;-74
2023/07/28 10:47:43;;;;;;;8.60;7.63;;;;;;;;;;4931136;29;20031;-74
2023/07/28 10:50:09;;;;;;;7.28;6.30;;;;;;;;;;4932824;29;20071;-74
2023/07/28 10:52:39;;;;;;;8.27;7.60;;;;;;;;;;4932682;29;20043;-73
2023/07/28 10:55:05;;;;;;;8.55;7.15;;;;;;;;;;4932857;29;20043;-73
2023/07/28 10:57:31;;;;;;;8.07;7.10;;;;;;;;;;4932533;29;20066;-72
2023/07/28 10:59:59;;;;;;;11.48;7.45;;;;;;;;;;4932553;29;20039;-73
2023/07/28 11:02:26;;;;;;;7.85;7.13;;;;;;;;;;4932085;29;20032;-74
2023/07/28 11:04:53;;;;;;;8.07;7.22;;;;;;;;;;4933052;29;20130;-73
2023/07/28 11:07:19;;;;;;;8.70;7.50;;;;;;;;;;4933985;29;20087;-74
2023/07/28 11:09:45;;;;;;;8.85;6.70;;;;;;;;;;4950733;29;20423;-74
2023/07/28 11:12:12;;;;;;;7.45;6.60;;;;;;;;;;4934708;29;20031;-74
2023/07/28 11:14:39;;;;;;;7.45;6.60;;;;;;;;;;4931552;29;20043;-74
2023/07/28 11:17:05;;;;;;;8.10;7.03;;;;;;;;;;4932488;29;20415;-74
2023/07/28 11:19:31;;;;;;;10.90;6.63;;;;;;;;;;4932751;29;20039;-73
2023/07/28 11:21:58;;;;;;;10.63;7.07;;;;;;;;;;4915122;29;20407;-75
2023/07/28 11:24:25;;;;;;;7.25;6.57;;;;;;;;;;4932674;29;20052;-73
2023/07/28 11:26:51;;;;;;;9.65;5.65;;;;;;;;;;4932298;29;20045;-74
2023/07/28 11:29:21;;;;;;;7.45;6.13;;;;;;;;;;4931431;29;20150;-73
2023/07/28 11:31:47;;;;;;;7.85;5.75;;;;;;;;;;4933158;29;20035;-74
2023/07/28 11:34:14;;;;;;;7.13;6.00;;;;;;;;;;4933851;29;20524;-73
2023/07/28 11:36:40;;;;;;;7.28;6.68;;;;;;;;;;4933192;29;20038;-74
2023/07/28 11:39:06;;;;;;;6.97;6.30;;;;;;;;;;4933344;29;20039;-75
2023/07/28 11:41:33;;;;;;;6.47;5.97;;;;;;;;;;4935374;29;20538;-74
2023/07/28 11:43:59;;;;;;;6.53;6.03;;;;;;;;;;4935884;29;20032;-74
2023/07/28 11:46:39;;;;;;;7.90;6.15;;;;;;;;;;4935872;29;20155;-74
2023/07/28 11:49:09;;;;;;;9.05;6.80;;;;;;;;;;4937342;29;20083;-75
2023/07/28 11:51:43;;;;;;;9.93;6.57;;;;;;;;;;4937637;29;20024;-75
2023/07/28 11:54:16;;;;;;;8.85;6.00;;;;;;;;;;4920927;29;20048;-73
2023/07/28 11:56:43;;;;;;;9.88;6.10;;;;;;;;;;4936212;29;20043;-73
2023/07/28 11:59:09;;;;;;;7.30;6.63;;;;;;;;;;4935794;29;20039;-75
2023/07/28 12:01:35;;;;;;;7.95;7.00;;;;;;;;;;4934698;29;20474;-73
2023/07/28 12:04:23;;;;;;;7.03;6.30;;;;;;;;;;4935951;29;20036;-74
2023/07/28 12:07:06;;;;;;;7.25;6.55;;;;;;;;;;4935345;29;20027;-75
2023/07/28 12:09:33;;;;;;;7.85;7.10;;;;;;;;;;4935595;29;20479;-73
2023/07/28 12:11:59;;;;;;;9.20;6.80;;;;;;;;;;4935418;29;20031;-74
2023/07/28 12:14:34;;;;;;;9.27;7.45;;;;;;;;;;4936022;29;20035;-74
2023/07/28 12:17:01;;;;;;;9.93;8.10;;;;;;;;;;4935088;29;20042;-74
2023/07/28 12:19:28;;;;;;;9.52;6.90;;;;;;;;;;4935372;29;20111;-74
2023/07/28 12:21:53;;;;;;;9.00;7.18;;;;;;;;;;4934756;29;20036;-74
2023/07/28 12:24:19;;;;;;;9.27;8.05;;;;;;;;;;4935265;29;20039;-74
2023/07/28 12:26:46;;;;;;;10.00;9.20;;;;;;;;;;4934929;29;20663;-73
2023/07/28 12:29:12;;;;;;;18.60;9.70;;;;;;;;;;4949769;29;20043;-74
2023/07/28 12:31:38;;;;;;;11.60;10.40;;;;;;;;;;4933733;29;20042;-74
2023/07/28 12:34:04;;;;;;;11.40;10.10;;;;;;;;;;4934943;29;20078;-75
2023/07/28 12:36:31;;;;;;;12.00;10.63;;;;;;;;;;4934995;29;20037;-75
2023/07/28 12:38:57;;;;;;;11.50;10.43;;;;;;;;;;4934913;29;20047;-75
2023/07/28 12:41:23;;;;;;;9.95;9.15;;;;;;;;;;4935072;29;20036;-74
2023/07/28 12:43:49;;;;;;;10.07;9.25;;;;;;;;;;4936188;29;20107;-74
2023/07/28 12:46:16;;;;;;;10.20;9.27;;;;;;;;;;4940143;29;20039;-74
2023/07/28 12:48:42;;;;;;;9.75;8.95;;;;;;;;;;4935269;29;20047;-74
2023/07/28 12:51:08;;;;;;;9.65;8.85;;;;;;;;;;4917543;29;20035;-75
2023/07/28 12:53:34;;;;;;;9.68;8.88;;;;;;;;;;4934145;29;20054;-74
2023/07/28 12:56:00;;;;;;;10.18;9.30;;;;;;;;;;4934783;29;20040;-73
2023/07/28 12:58:26;;;;;;;10.23;9.23;;;;;;;;;;4951309;29;20039;-74
2023/07/28 13:00:52;;;;;;;10.30;9.52;;;;;;;;;;4938091;29;20051;-74
2023/07/28 13:03:18;;;;;;;10.50;9.65;;;;;;;;;;4937895;29;20063;-73
2023/07/28 13:05:46;;;;;;;13.13;11.93;;;;;;;;;;4938406;29;20070;-75
2023/07/28 13:08:12;;;;;;;11.43;10.52;;;;;;;;;;4937521;29;20074;-74
2023/07/28 13:10:39;;;;;;;11.65;10.40;;;;;;;;;;4937086;29;20031;-73
2023/07/28 13:13:04;;;;;;;11.50;10.40;;;;;;;;;;4936699;29;20039;-73
2023/07/28 13:15:30;;;;;;;11.65;10.45;;;;;;;;;;4936675;29;20380;-73
2023/07/28 13:17:56;;;;;;;13.15;10.98;;;;;;;;;;4935355;29;20072;-72
2023/07/28 13:20:23;;;;;;;11.98;10.82;;;;;;;;;;4935775;29;20473;-75
2023/07/28 13:22:49;;;;;;;11.68;10.60;;;;;;;;;;4933883;29;20099;-73
2023/07/28 13:25:15;;;;;;;12.77;11.40;;;;;;;;;;4934372;29;20043;-73
2023/07/28 13:27:41;;;;;;;12.80;11.65;;;;;;;;;;4933805;29;20175;-73
2023/07/28 13:30:08;;;;;;;13.43;12.02;;;;;;;;;;4932569;29;20600;-73
2023/07/28 13:32:33;;;;;;;12.02;11.02;;;;;;;;;;4933836;29;20043;-73
2023/07/28 13:35:00;;;;;;;14.23;12.15;;;;;;;;;;4932374;29;20043;-73
2023/07/28 13:37:25;;;;;;;11.35;10.35;;;;;;;;;;4933894;29;20036;-72
2023/07/28 13:39:52;;;;;;;12.05;10.90;;;;;;;;;;4933831;29;20042;-72
2023/07/28 13:42:18;;;;;;;10.23;7.68;;;;;;;;;;4942704;29;20409;-72
2023/07/28 13:44:44;;;;;;;5.22;4.72;;;;;;;;;;4952881;28;20046;-72
2023/07/28 13:47:10;;;;;;;5.93;5.40;;;;;;;;;;4954395;28;20066;-72
2023/07/28 13:49:37;;;;;;;5.18;4.78;;;;;;;;;;4952061;29;20071;-72
2023/07/28 13:52:03;;;;;;;4.28;3.97;;;;;;;;;;4951080;29;20039;-71
2023/07/28 13:54:29;;;;;;;7.93;5.03;;;;;;;;;;4952677;28;20126;-72
2023/07/28 13:56:56;;;;;;;4.85;4.43;;;;;;;;;;4932223;29;20094;-71
2023/07/28 13:59:22;;;;;;;6.38;3.80;;;;;;;;;;4926296;29;20028;-71
2023/07/28 14:01:48;;;;;;;3.83;3.50;;;;;;;;;;4925519;29;20059;-71
2023/07/28 14:04:14;;;;;;;4.25;3.88;;;;;;;;;;4928987;29;20060;-71
2023/07/28 14:06:40;;;;;;;3.85;3.38;;;;;;;;;;4923843;29;20035;-71
2023/07/28 14:09:06;;;;;;;3.97;3.67;;;;;;;;;;4922742;29;20047;-71
2023/07/28 14:11:32;;;;;;;4.05;3.75;;;;;;;;;;4923091;29;20086;-71
2023/07/28 14:13:58;;;;;;;5.82;3.58;;;;;;;;;;4923900;29;20039;-71
2023/07/28 14:16:24;;;;;;;5.45;3.45;;;;;;;;;;4922561;29;20585;-72
2023/07/28 14:18:50;;;;;;;2.33;2.22;;;;;;;;;;4922000;29;20035;-73
2023/07/28 14:21:16;;;;;;;5.13;2.92;;;;;;;;;;4924578;29;20067;-72
2023/07/28 14:23:42;;;;;;;7.18;6.10;;;;;;;;;;4932543;29;20067;-72
2023/07/28 14:26:08;;;;;;;4.30;4.00;;;;;;;;;;4933912;29;20267;-72
2023/07/28 14:28:34;;;;;;;5.85;4.38;;;;;;;;;;4927824;28;20346;-72
2023/07/28 14:31:00;;;;;;;5.72;4.50;;;;;;;;;;4923779;29;20377;-72
2023/07/28 14:33:26;;;;;;;5.28;4.32;;;;;;;;;;4925570;29;20040;-72
2023/07/28 14:35:53;;;;;;;4.80;4.40;;;;;;;;;;4928535;29;20035;-73